sensor_id;sensor_type;location;lat;lon;timestamp;pressure;altitude;pressure_sealevel;temperature;humidity
75767;BME280;64378;55.596;13.014;2023-04-28T12:22:57;101663.75;;;20.87;37.65
75767;BME280;64378;55.596;13.014;2023-04-28T12:25:22;101664.09;;;20.90;37.55
75767;BME280;64378;55.596;13.014;2023-04-28T12:28:00;101658.59;;;20.90;37.36
75767;BME280;64378;55.596;13.014;2023-04-28T12:30:26;101654.53;;;20.93;37.39
75767;BME280;64378;55.596;13.014;2023-04-28T12:32:52;101652.13;;;20.96;37.23
75767;BME280;64378;55.596;13.014;2023-04-28T12:35:20;101657.13;;;20.99;37.28
75767;BME280;64378;55.596;13.014;2023-04-28T12:37:45;101652.81;;;21.03;37.09
75767;BME280;64378;55.596;13.014;2023-04-28T12:40:10;101648.50;;;21.07;36.99
75767;BME280;64378;55.596;13.014;2023-04-28T12:42:36;101642.50;;;21.10;37.09
75767;BME280;64378;55.596;13.014;2023-04-28T12:45:01;101649.16;;;21.14;36.93
75767;BME280;64378;55.596;13.014;2023-04-28T12:47:27;101644.81;;;21.18;37.11
75767;BME280;64378;55.596;13.014;2023-04-28T12:49:52;101646.25;;;21.21;37.00
75767;BME280;64378;55.596;13.014;2023-04-28T12:52:20;101649.31;;;21.24;36.88
75767;BME280;64378;55.596;13.014;2023-04-28T12:54:46;101645.25;;;21.27;36.85
75767;BME280;64378;55.596;13.014;2023-04-28T12:57:15;101639.50;;;21.28;36.77
75767;BME280;64378;55.596;13.014;2023-04-28T12:59:41;101636.25;;;21.31;36.69
75767;BME280;64378;55.596;13.014;2023-04-28T13:02:07;101638.72;;;21.33;36.47
75767;BME280;64378;55.596;13.014;2023-04-28T13:04:32;101640.97;;;21.36;36.54
75767;BME280;64378;55.596;13.014;2023-04-28T13:06:57;101645.38;;;21.37;36.43
75767;BME280;64378;55.596;13.014;2023-04-28T13:09:23;101637.75;;;21.39;36.48
75767;BME280;64378;55.596;13.014;2023-04-28T13:11:49;101630.09;;;21.41;36.39
75767;BME280;64378;55.596;13.014;2023-04-28T13:14:14;101634.50;;;21.42;36.22
75767;BME280;64378;55.596;13.014;2023-04-28T13:16:39;101619.69;;;21.43;36.40
75767;BME280;64378;55.596;13.014;2023-04-28T13:19:04;101623.25;;;21.43;36.26
75767;BME280;64378;55.596;13.014;2023-04-28T13:21:34;101626.56;;;21.45;36.34
75767;BME280;64378;55.596;13.014;2023-04-28T13:23:59;101616.16;;;21.47;36.25
75767;BME280;64378;55.596;13.014;2023-04-28T13:26:25;101606.84;;;21.48;36.12
75767;BME280;64378;55.596;13.014;2023-04-28T13:28:51;101610.44;;;21.49;36.18
75767;BME280;64378;55.596;13.014;2023-04-28T13:31:16;101603.03;;;21.49;36.16
75767;BME280;64378;55.596;13.014;2023-04-28T13:33:42;101603.88;;;21.50;36.26
75767;BME280;64378;55.596;13.014;2023-04-28T13:36:07;101604.69;;;21.50;36.17
75767;BME280;64378;55.596;13.014;2023-04-28T13:38:33;101604.69;;;21.50;36.06
75767;BME280;64378;55.596;13.014;2023-04-28T13:40:58;101599.19;;;21.50;36.00
75767;BME280;64378;55.596;13.014;2023-04-28T13:43:24;101596.44;;;21.50;36.13
75767;BME280;64378;55.596;13.014;2023-04-28T13:45:50;101599.19;;;21.50;36.16
75767;BME280;64378;55.596;13.014;2023-04-28T13:48:15;101596.22;;;21.52;36.10
75767;BME280;64378;55.596;13.014;2023-04-28T13:50:41;101596.75;;;21.54;36.06
75767;BME280;64378;55.596;13.014;2023-04-28T13:53:06;101595.69;;;21.55;35.97
75767;BME280;64378;55.596;13.014;2023-04-28T13:55:32;101592.13;;;21.54;36.09
75767;BME280;64378;55.596;13.014;2023-04-28T13:57:57;101590.19;;;21.55;36.10
75767;BME280;64378;55.596;13.014;2023-04-28T14:00:26;101590.19;;;21.55;35.93
75767;BME280;64378;55.596;13.014;2023-04-28T14:02:51;101587.44;;;21.55;35.89
75767;BME280;64378;55.596;13.014;2023-04-28T14:05:17;101579.19;;;21.55;35.91
75767;BME280;64378;55.596;13.014;2023-04-28T14:07:42;101581.72;;;21.56;35.99
75767;BME280;64378;55.596;13.014;2023-04-28T14:10:08;101582.53;;;21.57;35.98
75767;BME280;64378;55.596;13.014;2023-04-28T14:12:33;101580.63;;;21.57;35.96
75767;BME280;64378;55.596;13.014;2023-04-28T14:14:59;101577.03;;;21.57;36.11
75767;BME280;64378;55.596;13.014;2023-04-28T14:17:24;101582.31;;;21.58;35.85
75767;BME280;64378;55.596;13.014;2023-04-28T14:19:50;101573.00;;;21.59;35.89
75767;BME280;64378;55.596;13.014;2023-04-28T14:22:15;101578.69;;;21.58;35.84
75767;BME280;64378;55.596;13.014;2023-04-28T14:24:40;101575.75;;;21.59;35.91
75767;BME280;64378;55.596;13.014;2023-04-28T14:27:06;101571.91;;;21.60;35.78
75767;BME280;64378;55.596;13.014;2023-04-28T14:29:32;101564.50;;;21.61;35.79
75767;BME280;64378;55.596;13.014;2023-04-28T14:31:57;101564.75;;;21.59;35.98
75767;BME280;64378;55.596;13.014;2023-04-28T14:34:22;101563.91;;;21.59;36.07
75767;BME280;64378;55.596;13.014;2023-04-28T14:36:48;101567.50;;;21.59;35.96
75767;BME280;64378;55.596;13.014;2023-04-28T14:39:14;101568.59;;;21.58;36.06
75767;BME280;64378;55.596;13.014;2023-04-28T14:41:40;101560.34;;;21.58;36.01
75767;BME280;64378;55.596;13.014;2023-04-28T14:44:05;101552.94;;;21.59;35.89
75767;BME280;64378;55.596;13.014;2023-04-28T14:46:31;101555.66;;;21.59;35.94
75767;BME280;64378;55.596;13.014;2023-04-28T14:48:56;101552.94;;;21.59;36.02
75767;BME280;64378;55.596;13.014;2023-04-28T14:51:22;101543.00;;;21.58;36.02
75767;BME280;64378;55.596;13.014;2023-04-28T14:53:48;101552.09;;;21.58;36.12
75767;BME280;64378;55.596;13.014;2023-04-28T14:56:13;101549.38;;;21.58;36.10
75767;BME280;64378;55.596;13.014;2023-04-28T14:58:39;101541.13;;;21.58;36.04
75767;BME280;64378;55.596;13.014;2023-04-28T15:01:04;101546.63;;;21.58;36.05
75767;BME280;64378;55.596;13.014;2023-04-28T15:03:30;101540.03;;;21.59;36.07
75767;BME280;64378;55.596;13.014;2023-04-28T15:05:55;101538.09;;;21.60;36.10
75767;BME280;64378;55.596;13.014;2023-04-28T15:08:21;101536.22;;;21.60;36.18
75767;BME280;64378;55.596;13.014;2023-04-28T15:10:46;101533.47;;;21.60;36.20
75767;BME280;64378;55.596;13.014;2023-04-28T15:13:11;101535.38;;;21.60;36.02
75767;BME280;64378;55.596;13.014;2023-04-28T15:15:36;101535.38;;;21.60;36.05
75767;BME280;64378;55.596;13.014;2023-04-28T15:18:02;101539.19;;;21.59;36.33
75767;BME280;64378;55.596;13.014;2023-04-28T15:20:31;101532.63;;;21.60;36.30
75767;BME280;64378;55.596;13.014;2023-04-28T15:22:57;101533.69;;;21.59;36.19
75767;BME280;64378;55.596;13.014;2023-04-28T15:25:23;101536.44;;;21.59;36.22
75767;BME280;64378;55.596;13.014;2023-04-28T15:27:49;101530.97;;;21.59;36.23
75767;BME280;64378;55.596;13.014;2023-04-28T15:30:15;101521.03;;;21.58;36.20
75767;BME280;64378;55.596;13.014;2023-04-28T15:32:41;101516.41;;;21.58;36.13
75767;BME280;64378;55.596;13.014;2023-04-28T15:35:07;101511.13;;;21.57;36.08
75767;BME280;64378;55.596;13.014;2023-04-28T15:40:01;101520.44;;;21.56;36.13
75767;BME280;64378;55.596;13.014;2023-04-28T15:42:26;101514.13;;;21.55;36.18
75767;BME280;64378;55.596;13.014;2023-04-28T15:44:52;101506.97;;;21.54;35.97
75767;BME280;64378;55.596;13.014;2023-04-28T15:47:18;101510.53;;;21.55;36.16
75767;BME280;64378;55.596;13.014;2023-04-28T15:49:44;101505.31;;;21.53;35.79
75767;BME280;64378;55.596;13.014;2023-04-28T15:52:09;101508.06;;;21.53;35.98
75767;BME280;64378;55.596;13.014;2023-04-28T15:54:34;101508.06;;;21.53;35.96
75767;BME280;64378;55.596;13.014;2023-04-28T15:57:00;101514.66;;;21.52;35.90
75767;BME280;64378;55.596;13.014;2023-04-28T15:59:25;101512.75;;;21.53;36.06
75767;BME280;64378;55.596;13.014;2023-04-28T16:01:51;101511.09;;;21.52;35.91
75767;BME280;64378;55.596;13.014;2023-04-28T16:04:16;101513.84;;;21.52;35.96
75767;BME280;64378;55.596;13.014;2023-04-28T16:06:41;101509.41;;;21.51;35.84
75767;BME280;64378;55.596;13.014;2023-04-28T16:09:06;101512.97;;;21.51;35.81
75767;BME280;64378;55.596;13.014;2023-04-28T16:11:32;101512.16;;;21.51;35.84
75767;BME280;64378;55.596;13.014;2023-04-28T16:13:57;101517.66;;;21.51;35.85
75767;BME280;64378;55.596;13.014;2023-04-28T16:16:22;101516.81;;;21.50;35.85
75767;BME280;64378;55.596;13.014;2023-04-28T16:18:49;101515.16;;;21.49;35.36
75767;BME280;64378;55.596;13.014;2023-04-28T16:21:15;101508.00;;;21.48;35.83
75767;BME280;64378;55.596;13.014;2023-04-28T16:23:41;101509.94;;;21.48;35.73
75767;BME280;64378;55.596;13.014;2023-04-28T16:26:06;101504.44;;;21.48;35.74
75767;BME280;64378;55.596;13.014;2023-04-28T16:28:31;101510.75;;;21.48;35.60
75767;BME280;64378;55.596;13.014;2023-04-28T16:30:57;101518.75;;;21.50;35.68
75767;BME280;64378;55.596;13.014;2023-04-28T16:33:23;101508.00;;;21.48;35.61
75767;BME280;64378;55.596;13.014;2023-04-28T16:35:56;101505.25;;;21.48;35.66
75767;BME280;64378;55.596;13.014;2023-04-28T16:38:21;101512.66;;;21.48;35.59
75767;BME280;64378;55.596;13.014;2023-04-28T16:40:47;101506.34;;;21.47;35.52
75767;BME280;64378;55.596;13.014;2023-04-28T16:43:12;101502.78;;;21.47;35.32
75767;BME280;64378;55.596;13.014;2023-04-28T16:45:38;101505.75;;;21.45;35.34
75767;BME280;64378;55.596;13.014;2023-04-28T16:48:03;101509.59;;;21.44;35.29
75767;BME280;64378;55.596;13.014;2023-04-28T16:50:28;101498.88;;;21.43;35.43
75767;BME280;64378;55.596;13.014;2023-04-28T16:52:54;101503.53;;;21.42;34.96
75767;BME280;64378;55.596;13.014;2023-04-28T16:55:19;101501.84;;;21.41;35.30
75767;BME280;64378;55.596;13.014;2023-04-28T16:57:45;101506.25;;;21.42;35.23
75767;BME280;64378;55.596;13.014;2023-04-28T17:00:10;101497.72;;;21.39;35.44
75767;BME280;64378;55.596;13.014;2023-04-28T17:02:36;101503.22;;;21.39;35.33
75767;BME280;64378;55.596;13.014;2023-04-28T17:05:01;101489.75;;;21.37;35.25
75767;BME280;64378;55.596;13.014;2023-04-28T17:07:26;101499.88;;;21.37;34.91
75767;BME280;64378;55.596;13.014;2023-04-28T17:09:52;101487.00;;;21.37;35.18
75767;BME280;64378;55.596;13.014;2023-04-28T17:12:17;101485.34;;;21.36;35.25
75767;BME280;64378;55.596;13.014;2023-04-28T17:14:44;101488.31;;;21.35;35.16
75767;BME280;64378;55.596;13.014;2023-04-28T17:17:10;101487.75;;;21.33;35.16
75767;BME280;64378;55.596;13.014;2023-04-28T17:19:35;101484.19;;;21.32;35.11
75767;BME280;64378;55.596;13.014;2023-04-28T17:22:01;101488.25;;;21.30;34.93
75767;BME280;64378;55.596;13.014;2023-04-28T17:24:26;101483.59;;;21.30;34.80
75767;BME280;64378;55.596;13.014;2023-04-28T17:26:52;101483.03;;;21.28;35.10
75767;BME280;64378;55.596;13.014;2023-04-28T17:29:17;101482.22;;;21.28;35.13
75767;BME280;64378;55.596;13.014;2023-04-28T17:31:43;101478.63;;;21.27;35.09
75767;BME280;64378;55.596;13.014;2023-04-28T17:34:09;101477.81;;;21.27;35.12
75767;BME280;64378;55.596;13.014;2023-04-28T17:36:34;101486.28;;;21.25;35.02
75767;BME280;64378;55.596;13.014;2023-04-28T17:38:59;101481.88;;;21.24;34.94
75767;BME280;64378;55.596;13.014;2023-04-28T17:41:25;101475.81;;;21.22;34.73
75767;BME280;64378;55.596;13.014;2023-04-28T17:43:50;101475.22;;;21.20;35.08
75767;BME280;64378;55.596;13.014;2023-04-28T17:46:16;101477.97;;;21.20;35.02
75767;BME280;64378;55.596;13.014;2023-04-28T17:48:41;101478.25;;;21.19;34.97
75767;BME280;64378;55.596;13.014;2023-04-28T17:51:07;101480.97;;;21.19;34.73
75767;BME280;64378;55.596;13.014;2023-04-28T17:53:32;101479.31;;;21.18;34.87
75767;BME280;64378;55.596;13.014;2023-04-28T17:55:59;101486.72;;;21.17;35.04
75767;BME280;64378;55.596;13.014;2023-04-28T17:58:24;101487.78;;;21.16;34.95
75767;BME280;64378;55.596;13.014;2023-04-28T18:00:57;101483.38;;;21.15;34.90
75767;BME280;64378;55.596;13.014;2023-04-28T18:03:22;101490.81;;;21.15;35.09
75767;BME280;64378;55.596;13.014;2023-04-28T18:05:48;101490.81;;;21.15;34.90
75767;BME280;64378;55.596;13.014;2023-04-28T18:08:14;101490.00;;;21.14;34.94
75767;BME280;64378;55.596;13.014;2023-04-28T18:10:39;101482.00;;;21.13;34.81
75767;BME280;64378;55.596;13.014;2023-04-28T18:13:04;101485.81;;;21.12;34.77
75767;BME280;64378;55.596;13.014;2023-04-28T18:15:31;101488.56;;;21.12;34.80
75767;BME280;64378;55.596;13.014;2023-04-28T18:17:56;101488.81;;;21.10;34.72
75767;BME280;64378;55.596;13.014;2023-04-28T18:20:21;101485.22;;;21.10;34.26
75767;BME280;64378;55.596;13.014;2023-04-28T18:22:47;101481.91;;;21.08;34.51
75767;BME280;64378;55.596;13.014;2023-04-28T18:25:12;101485.50;;;21.08;34.66
75767;BME280;64378;55.596;13.014;2023-04-28T18:27:40;101478.34;;;21.07;34.36
75767;BME280;64378;55.596;13.014;2023-04-28T18:30:06;101484.66;;;21.08;34.74
75767;BME280;64378;55.596;13.014;2023-04-28T18:32:32;101489.34;;;21.07;34.52
75767;BME280;64378;55.596;13.014;2023-04-28T18:34:58;101485.16;;;21.05;34.37
75767;BME280;64378;55.596;13.014;2023-04-28T18:37:23;101493.38;;;21.05;34.61
75767;BME280;64378;55.596;13.014;2023-04-28T18:39:49;101489.84;;;21.04;34.56
75767;BME280;64378;55.596;13.014;2023-04-28T18:42:18;101481.59;;;21.04;34.82
75767;BME280;64378;55.596;13.014;2023-04-28T18:44:43;101483.50;;;21.04;34.87
75767;BME280;64378;55.596;13.014;2023-04-28T18:47:09;101486.25;;;21.04;34.53
75767;BME280;64378;55.596;13.014;2023-04-28T18:49:34;101491.72;;;21.04;34.87
75767;BME280;64378;55.596;13.014;2023-04-28T18:52:01;101479.94;;;21.03;34.52
75767;BME280;64378;55.596;13.014;2023-04-28T18:54:27;101482.69;;;21.03;34.00
75767;BME280;64378;55.596;13.014;2023-04-28T18:56:53;101483.75;;;21.02;33.99
75767;BME280;64378;55.596;13.014;2023-04-28T18:59:18;101476.63;;;21.01;34.08
75767;BME280;64378;55.596;13.014;2023-04-28T19:01:43;101474.94;;;21.00;33.68
75767;BME280;64378;55.596;13.014;2023-04-28T19:04:09;101482.38;;;21.00;34.03
75767;BME280;64378;55.596;13.014;2023-04-28T19:06:34;101477.69;;;21.00;34.01
75767;BME280;64378;55.596;13.014;2023-04-28T19:09:00;101482.38;;;21.00;34.10
75767;BME280;64378;55.596;13.014;2023-04-28T19:11:26;101472.47;;;20.99;33.92
75767;BME280;64378;55.596;13.014;2023-04-28T19:13:51;101476.88;;;21.00;34.01
75767;BME280;64378;55.596;13.014;2023-04-28T19:16:16;101476.03;;;20.99;34.32
75767;BME280;64378;55.596;13.014;2023-04-28T19:18:42;101479.84;;;20.98;34.54
75767;BME280;64378;55.596;13.014;2023-04-28T19:21:08;101478.19;;;20.97;34.58
75767;BME280;64378;55.596;13.014;2023-04-28T19:23:36;101483.94;;;20.96;34.41
75767;BME280;64378;55.596;13.014;2023-04-28T19:26:03;101476.81;;;20.95;34.50
75767;BME280;64378;55.596;13.014;2023-04-28T19:28:28;101472.41;;;20.94;34.42
75767;BME280;64378;55.596;13.014;2023-04-28T19:30:54;101474.88;;;20.95;34.85
75767;BME280;64378;55.596;13.014;2023-04-28T19:33:20;101471.31;;;20.95;34.76
75767;BME280;64378;55.596;13.014;2023-04-28T19:35:49;101467.72;;;20.94;34.48
75767;BME280;64378;55.596;13.014;2023-04-28T19:38:14;101469.66;;;20.94;34.57
75767;BME280;64378;55.596;13.014;2023-04-28T19:40:43;101468.81;;;20.93;34.42
75767;BME280;64378;55.596;13.014;2023-04-28T19:43:08;101468.81;;;20.93;34.92
75767;BME280;64378;55.596;13.014;2023-04-28T19:45:34;101468.00;;;20.93;34.52
75767;BME280;64378;55.596;13.014;2023-04-28T19:48:00;101466.06;;;20.93;34.56
75767;BME280;64378;55.596;13.014;2023-04-28T19:50:25;101467.13;;;20.92;35.04
75767;BME280;64378;55.596;13.014;2023-04-28T19:52:51;101459.75;;;20.93;34.84
75767;BME280;64378;55.596;13.014;2023-04-28T19:55:16;101462.50;;;20.93;34.50
75767;BME280;64378;55.596;13.014;2023-04-28T19:57:44;101465.47;;;20.91;34.41
75767;BME280;64378;55.596;13.014;2023-04-28T20:00:09;101464.66;;;20.91;34.31
75767;BME280;64378;55.596;13.014;2023-04-28T20:02:35;101461.91;;;20.91;34.29
75767;BME280;64378;55.596;13.014;2023-04-28T20:05:00;101464.66;;;20.91;34.76
75767;BME280;64378;55.596;13.014;2023-04-28T20:07:26;101463.00;;;20.90;34.53
75767;BME280;64378;55.596;13.014;2023-04-28T20:09:51;101458.34;;;20.90;34.46
75767;BME280;64378;55.596;13.014;2023-04-28T20:12:16;101465.75;;;20.90;34.88
75767;BME280;64378;55.596;13.014;2023-04-28T20:14:41;101454.78;;;20.90;34.88
75767;BME280;64378;55.596;13.014;2023-04-28T20:17:08;101457.25;;;20.91;34.98
75767;BME280;64378;55.596;13.014;2023-04-28T20:19:34;101460.00;;;20.91;34.74
75767;BME280;64378;55.596;13.014;2023-04-28T20:22:02;101457.84;;;20.93;34.91
75767;BME280;64378;55.596;13.014;2023-04-28T20:24:30;101455.94;;;20.94;34.67
75767;BME280;64378;55.596;13.014;2023-04-28T20:26:58;101456.16;;;20.92;34.93
75767;BME280;64378;55.596;13.014;2023-04-28T20:29:24;101451.75;;;20.91;35.27
75767;BME280;64378;55.596;13.014;2023-04-28T20:31:51;101453.19;;;20.94;35.18
75767;BME280;64378;55.596;13.014;2023-04-28T20:34:16;101457.84;;;20.93;34.94
75767;BME280;64378;55.596;13.014;2023-04-28T20:36:42;101456.75;;;20.94;34.71
75767;BME280;64378;55.596;13.014;2023-04-28T20:39:07;101449.38;;;20.95;35.02
75767;BME280;64378;55.596;13.014;2023-04-28T20:41:35;101456.75;;;20.94;34.50
75767;BME280;64378;55.596;13.014;2023-04-28T20:44:00;101455.94;;;20.94;35.22
75767;BME280;64378;55.596;13.014;2023-04-28T20:46:26;101455.09;;;20.93;35.06
75767;BME280;64378;55.596;13.014;2023-04-28T20:48:51;101455.09;;;20.93;35.41
75767;BME280;64378;55.596;13.014;2023-04-28T20:51:17;101458.91;;;20.92;34.60
75767;BME280;64378;55.596;13.014;2023-04-28T20:53:42;101453.69;;;20.91;35.75
75767;BME280;64378;55.596;13.014;2023-04-28T20:56:07;101451.75;;;20.91;36.17
75767;BME280;64378;55.596;13.014;2023-04-28T20:58:33;101454.50;;;20.91;34.84
75767;BME280;64378;55.596;13.014;2023-04-28T21:00:59;101451.75;;;20.91;36.08
75767;BME280;64378;55.596;13.014;2023-04-28T21:03:25;101455.34;;;20.92;36.21
75767;BME280;64378;55.596;13.014;2023-04-28T21:05:50;101451.75;;;20.91;36.19
75767;BME280;64378;55.596;13.014;2023-04-28T21:08:15;101440.25;;;20.89;34.95
75767;BME280;64378;55.596;13.014;2023-04-28T21:10:41;101444.31;;;20.87;35.09
75767;BME280;64378;55.596;13.014;2023-04-28T21:13:06;101448.41;;;20.84;34.01
75767;BME280;64378;55.596;13.014;2023-04-28T21:15:37;101438.16;;;20.80;34.19
75767;BME280;64378;55.596;13.014;2023-04-28T21:18:02;101438.56;;;20.72;34.52
75767;BME280;64378;55.596;13.014;2023-04-28T21:20:28;101431.06;;;20.68;34.36
75767;BME280;64378;55.596;13.014;2023-04-28T21:22:53;101438.19;;;20.64;34.59
75767;BME280;64378;55.596;13.014;2023-04-28T21:25:19;101431.53;;;20.60;34.44
75767;BME280;64378;55.596;13.014;2023-04-28T21:27:44;101434.78;;;20.57;34.49
75767;BME280;64378;55.596;13.014;2023-04-28T21:30:09;101438.25;;;20.52;34.48
75767;BME280;64378;55.596;13.014;2023-04-28T21:32:36;101435.75;;;20.51;34.76
75767;BME280;64378;55.596;13.014;2023-04-28T21:35:02;101429.69;;;20.49;34.94
75767;BME280;64378;55.596;13.014;2023-04-28T21:37:29;101434.38;;;20.48;34.57
75767;BME280;64378;55.596;13.014;2023-04-28T21:39:54;101428.53;;;20.45;34.32
75767;BME280;64378;55.596;13.014;2023-04-28T21:42:20;101437.03;;;20.43;34.53
75767;BME280;64378;55.596;13.014;2023-04-28T21:44:45;101429.88;;;20.42;34.19
75767;BME280;64378;55.596;13.014;2023-04-28T21:47:10;101428.44;;;20.40;34.15
75767;BME280;64378;55.596;13.014;2023-04-28T21:49:36;101429.56;;;20.39;34.29
75767;BME280;64378;55.596;13.014;2023-04-28T21:52:01;101436.34;;;20.36;33.92
75767;BME280;64378;55.596;13.014;2023-04-28T21:54:27;101430.53;;;20.33;34.32
75767;BME280;64378;55.596;13.014;2023-04-28T21:56:52;101433.78;;;20.30;34.16
75767;BME280;64378;55.596;13.014;2023-04-28T21:59:17;101431.28;;;20.28;34.09
75767;BME280;64378;55.596;13.014;2023-04-28T22:01:43;101435.09;;;20.27;34.16
75767;BME280;64378;55.596;13.014;2023-04-28T22:04:08;101429.28;;;20.24;33.76
75767;BME280;64378;55.596;13.014;2023-04-28T22:06:33;101432.03;;;20.24;34.12
75767;BME280;64378;55.596;13.014;2023-04-28T22:08:59;101431.22;;;20.23;34.06
75767;BME280;64378;55.596;13.014;2023-04-28T22:11:25;101430.38;;;20.23;34.14
75767;BME280;64378;55.596;13.014;2023-04-28T22:13:50;101429.56;;;20.22;33.74
75767;BME280;64378;55.596;13.014;2023-04-28T22:16:16;101425.16;;;20.21;34.59
75767;BME280;64378;55.596;13.014;2023-04-28T22:18:41;101424.06;;;20.22;34.48
75767;BME280;64378;55.596;13.014;2023-04-28T22:21:07;101422.16;;;20.23;34.45
75767;BME280;64378;55.596;13.014;2023-04-28T22:23:32;101418.59;;;20.22;33.94
75767;BME280;64378;55.596;13.014;2023-04-28T22:25:57;101424.31;;;20.21;34.23
75767;BME280;64378;55.596;13.014;2023-04-28T22:28:25;101428.38;;;20.18;34.04
75767;BME280;64378;55.596;13.014;2023-04-28T22:30:51;101420.66;;;20.15;34.10
75767;BME280;64378;55.596;13.014;2023-04-28T22:33:19;101420.88;;;20.14;34.69
75767;BME280;64378;55.596;13.014;2023-04-28T22:35:45;101424.47;;;20.14;34.19
75767;BME280;64378;55.596;13.014;2023-04-28T22:38:10;101421.72;;;20.14;34.35
75767;BME280;64378;55.596;13.014;2023-04-28T22:40:35;101416.25;;;20.14;34.04
75767;BME280;64378;55.596;13.014;2023-04-28T22:43:01;101412.94;;;20.12;34.25
75767;BME280;64378;55.596;13.014;2023-04-28T22:45:26;101414.28;;;20.10;34.19
75767;BME280;64378;55.596;13.014;2023-04-28T22:47:52;101415.56;;;20.07;34.13
75767;BME280;64378;55.596;13.014;2023-04-28T22:50:18;101415.56;;;20.07;34.14
75767;BME280;64378;55.596;13.014;2023-04-28T22:52:44;101417.50;;;20.07;34.37
75767;BME280;64378;55.596;13.014;2023-04-28T22:55:09;101412.84;;;20.07;34.42
75767;BME280;64378;55.596;13.014;2023-04-28T22:57:34;101415.56;;;20.07;34.12
75767;BME280;64378;55.596;13.014;2023-04-28T23:00:00;101411.16;;;20.06;34.32
75767;BME280;64378;55.596;13.014;2023-04-28T23:02:26;101404.88;;;20.06;34.16
75767;BME280;64378;55.596;13.014;2023-04-28T23:04:51;101403.44;;;20.03;34.31
75767;BME280;64378;55.596;13.014;2023-04-28T23:07:16;101401.78;;;20.02;34.26
75767;BME280;64378;55.596;13.014;2023-04-28T23:09:41;101399.88;;;20.03;34.40
75767;BME280;64378;55.596;13.014;2023-04-28T23:12:07;101395.50;;;20.02;34.35
75767;BME280;64378;55.596;13.014;2023-04-28T23:14:32;101395.50;;;20.02;34.20
75767;BME280;64378;55.596;13.014;2023-04-28T23:16:58;101386.41;;;20.01;34.35
75767;BME280;64378;55.596;13.014;2023-04-28T23:19:23;101391.09;;;20.01;34.33
75767;BME280;64378;55.596;13.014;2023-04-28T23:21:49;101386.09;;;19.98;34.59
75767;BME280;64378;55.596;13.014;2023-04-28T23:24:15;101384.41;;;19.97;34.54
75767;BME280;64378;55.596;13.014;2023-04-28T23:26:40;101385.47;;;19.96;34.72
75767;BME280;64378;55.596;13.014;2023-04-28T23:29:05;101385.47;;;19.96;34.81
75767;BME280;64378;55.596;13.014;2023-04-28T23:31:33;101388.00;;;19.97;34.67
75767;BME280;64378;55.596;13.014;2023-04-28T23:34:03;101375.38;;;19.96;34.82
75767;BME280;64378;55.596;13.014;2023-04-28T23:36:28;101380.84;;;19.96;34.69
75767;BME280;64378;55.596;13.014;2023-04-28T23:38:54;101388.22;;;19.96;34.73
75767;BME280;64378;55.596;13.014;2023-04-28T23:41:19;101383.81;;;19.95;34.68
75767;BME280;64378;55.596;13.014;2023-04-28T23:43:44;101388.50;;;19.94;34.37
75767;BME280;64378;55.596;13.014;2023-04-28T23:46:09;101385.97;;;19.93;34.53
75767;BME280;64378;55.596;13.014;2023-04-28T23:48:35;101378.84;;;19.92;34.65
75767;BME280;64378;55.596;13.014;2023-04-28T23:51:00;101379.91;;;19.91;34.60
75767;BME280;64378;55.596;13.014;2023-04-28T23:53:25;101375.78;;;19.88;34.56
75767;BME280;64378;55.596;13.014;2023-04-28T23:55:51;101377.66;;;19.88;34.71
75767;BME280;64378;55.596;13.014;2023-04-28T23:58:16;101378.78;;;19.87;34.82
